createdAt,value
2023-09-12T00:01:21.265Z,99.90
2023-09-12T00:05:43.326Z,99.90
2023-09-12T00:10:06.036Z,99.90
2023-09-12T00:14:28.217Z,99.90
2023-09-12T00:18:50.467Z,99.90
2023-09-12T00:23:12.478Z,99.90
2023-09-12T00:27:34.512Z,99.90
2023-09-12T00:31:56.309Z,99.90
2023-09-12T00:36:18.709Z,99.90
2023-09-12T00:40:40.719Z,99.90
2023-09-12T00:45:02.708Z,99.90
2023-09-12T00:49:26.140Z,99.90
2023-09-12T00:53:48.891Z,99.90
2023-09-12T00:58:11.025Z,99.90
2023-09-12T01:02:33.434Z,99.90
2023-09-12T01:06:55.778Z,99.90
2023-09-12T01:11:18.892Z,99.90
2023-09-12T01:15:40.902Z,99.90
2023-09-12T01:20:07.723Z,99.90
2023-09-12T01:25:09.328Z,99.90
2023-09-12T01:29:32.998Z,99.90
2023-09-12T01:33:59.000Z,99.90
2023-09-12T01:38:22.359Z,99.90
2023-09-12T01:42:48.536Z,99.90
2023-09-12T01:47:12.778Z,99.90
2023-09-12T01:51:36.049Z,99.90
2023-09-12T01:55:59.719Z,99.90
2023-09-12T02:00:23.152Z,99.90
2023-09-12T02:05:16.759Z,99.90
2023-09-12T02:09:41.230Z,99.90
2023-09-12T02:14:03.861Z,99.90
2023-09-12T02:18:31.680Z,99.90
2023-09-12T02:22:53.818Z,99.90
2023-09-12T02:27:16.087Z,99.90
2023-09-12T02:31:38.285Z,99.90
2023-09-12T02:36:01.121Z,99.90
2023-09-12T02:40:23.319Z,99.90
2023-09-12T02:44:45.117Z,99.90
2023-09-12T02:49:12.353Z,99.90
2023-09-12T02:53:34.460Z,99.90
2023-09-12T02:57:57.318Z,99.90
2023-09-12T03:02:19.726Z,99.90
2023-09-12T03:06:42.244Z,99.90
2023-09-12T03:11:04.453Z,99.90
2023-09-12T03:15:26.355Z,99.90
2023-09-12T03:19:48.920Z,99.90
2023-09-12T03:24:11.181Z,99.90
2023-09-12T03:28:34.570Z,99.90
2023-09-12T03:32:56.982Z,99.90
2023-09-12T03:37:19.510Z,99.90
2023-09-12T03:41:41.926Z,99.90
2023-09-12T03:46:07.663Z,99.90
2023-09-12T03:50:29.823Z,99.90
2023-09-12T03:54:51.953Z,99.90
2023-09-12T03:59:13.938Z,99.90
2023-09-12T04:03:36.605Z,99.90
2023-09-12T04:07:59.043Z,99.90
2023-09-12T04:12:21.216Z,99.90
2023-09-12T04:16:43.571Z,99.90
2023-09-12T04:21:05.980Z,99.90
2023-09-12T04:25:28.301Z,99.90
2023-09-12T04:29:50.557Z,99.90
2023-09-12T04:34:12.659Z,99.90
2023-09-12T04:38:34.971Z,99.90
2023-09-12T04:42:56.956Z,99.90
2023-09-12T04:47:19.116Z,99.90
2023-09-12T04:51:41.360Z,99.90
2023-09-12T04:56:04.475Z,99.90
2023-09-12T05:00:26.543Z,99.90
2023-09-12T05:04:48.853Z,99.90
2023-09-12T05:09:12.340Z,99.90
2023-09-12T05:13:35.196Z,99.90
2023-09-12T05:17:57.699Z,99.90
2023-09-12T05:22:21.408Z,99.90
2023-09-12T05:26:44.520Z,99.90
2023-09-12T05:31:07.455Z,99.90
2023-09-12T05:35:36.462Z,99.90
2023-09-12T05:40:01.616Z,99.90
2023-09-12T05:44:23.982Z,99.90
2023-09-12T05:48:47.251Z,99.90
2023-09-12T05:53:10.038Z,99.90
2023-09-12T05:57:34.513Z,99.90
2023-09-12T06:01:56.790Z,99.90
2023-09-12T06:06:19.394Z,99.90
2023-09-12T06:10:41.472Z,99.90
2023-09-12T06:15:05.657Z,99.90
2023-09-12T06:19:27.878Z,98.10
2023-09-12T06:24:11.637Z,93.00
2023-09-12T06:28:34.107Z,85.00
2023-09-12T06:32:59.247Z,81.00
2023-09-12T06:37:21.593Z,79.40
2023-09-12T06:41:44.025Z,75.20
2023-09-12T06:46:06.494Z,69.10
2023-09-12T06:50:32.902Z,64.60
2023-09-12T06:54:56.977Z,60.80
2023-09-12T06:59:19.420Z,58.90
2023-09-12T07:03:41.679Z,56.50
2023-09-12T07:08:05.775Z,55.80
2023-09-12T07:12:30.383Z,53.30
2023-09-12T07:16:57.673Z,51.10
2023-09-12T07:21:21.550Z,49.00
2023-09-12T07:25:43.755Z,47.50
2023-09-12T07:30:08.408Z,44.30
2023-09-12T07:34:30.593Z,43.00
2023-09-12T07:39:01.920Z,41.00
2023-09-12T07:43:24.317Z,39.50
2023-09-12T07:47:46.589Z,39.80
2023-09-12T07:52:09.662Z,40.30
2023-09-12T07:56:31.685Z,39.80
2023-09-12T08:00:53.765Z,38.90
2023-09-12T08:05:16.421Z,38.80
2023-09-12T08:10:00.533Z,39.30
2023-09-12T08:14:22.977Z,37.80
2023-09-12T08:18:45.770Z,36.70
2023-09-12T08:23:07.761Z,36.20
2023-09-12T08:27:29.783Z,36.50
2023-09-12T08:31:53.719Z,37.00
2023-09-12T08:36:15.812Z,36.10
2023-09-12T08:40:38.054Z,35.40
2023-09-12T08:45:00.034Z,35.90
2023-09-12T08:49:22.176Z,37.10
2023-09-12T08:53:44.394Z,36.50
2023-09-12T08:58:07.993Z,36.20
2023-09-12T09:02:31.538Z,34.80
2023-09-12T09:06:56.133Z,35.50
2023-09-12T09:11:19.056Z,36.20
2023-09-12T09:15:43.554Z,35.90
2023-09-12T09:20:10.447Z,34.70
2023-09-12T09:24:32.688Z,33.10
2023-09-12T09:29:24.380Z,31.30
2023-09-12T09:33:52.679Z,31.30
2023-09-12T09:38:20.296Z,31.00
2023-09-12T09:42:42.627Z,30.30
2023-09-12T09:47:07.466Z,30.60
2023-09-12T09:51:33.437Z,32.50
2023-09-12T09:56:16.502Z,34.40
2023-09-12T10:00:39.306Z,33.60
2023-09-12T10:05:05.858Z,32.80
2023-09-12T10:09:29.909Z,32.00
2023-09-12T10:14:00.545Z,31.30
2023-09-12T10:18:29.112Z,30.90
2023-09-12T10:23:08.357Z,31.30
2023-09-12T10:27:31.985Z,30.50
2023-09-12T10:31:54.299Z,31.00
2023-09-12T10:36:20.915Z,30.80
2023-09-12T10:40:44.929Z,30.60
2023-09-12T10:45:09.648Z,30.20
2023-09-12T10:49:32.947Z,29.90
2023-09-12T10:53:55.363Z,30.00
2023-09-12T10:58:17.470Z,30.40
2023-09-12T11:02:41.858Z,31.10
2023-09-12T11:07:42.029Z,30.80
2023-09-12T11:12:06.442Z,30.40
2023-09-12T11:16:28.674Z,30.00
2023-09-12T11:21:09.371Z,30.10
2023-09-12T11:25:32.640Z,30.60
2023-09-12T11:29:55.429Z,31.40
2023-09-12T11:34:18.189Z,32.30
2023-09-12T11:38:42.029Z,33.00
2023-09-12T11:43:08.847Z,32.90
2023-09-12T11:47:31.344Z,34.10
2023-09-12T11:51:55.542Z,34.80
2023-09-12T11:56:18.021Z,35.40
2023-09-12T12:00:52.762Z,36.60
2023-09-12T12:05:16.518Z,37.80
2023-09-12T12:09:38.532Z,38.50
2023-09-12T12:14:12.736Z,41.50
2023-09-12T12:18:37.668Z,44.80
2023-09-12T12:22:59.959Z,46.60
2023-09-12T12:27:22.080Z,47.50
2023-09-12T12:31:44.377Z,48.20
2023-09-12T12:36:09.370Z,47.30
2023-09-12T12:40:42.355Z,48.70
2023-09-12T12:45:16.818Z,48.60
2023-09-12T12:49:42.779Z,48.10
2023-09-12T12:54:07.367Z,48.20
2023-09-12T12:58:29.530Z,48.30
2023-09-12T13:02:51.840Z,49.10
2023-09-12T13:07:14.130Z,49.20
2023-09-12T13:11:36.459Z,49.30
2023-09-12T13:15:59.205Z,49.90
2023-09-12T13:20:22.923Z,49.30
2023-09-12T13:24:49.426Z,49.80
2023-09-12T13:29:11.941Z,50.40
2023-09-12T13:33:35.079Z,50.00
2023-09-12T13:37:57.459Z,49.90
2023-09-12T13:42:22.606Z,49.60
2023-09-12T13:46:47.757Z,49.30
2023-09-12T13:51:10.179Z,50.40
2023-09-12T13:55:45.414Z,49.70
2023-09-12T14:00:19.974Z,50.40
2023-09-12T14:04:44.219Z,49.90
2023-09-12T14:09:07.027Z,50.30
2023-09-12T14:13:29.473Z,50.50
2023-09-12T14:17:56.988Z,50.50
2023-09-12T14:22:21.663Z,51.00
2023-09-12T14:26:45.930Z,50.80
2023-09-12T14:31:14.958Z,51.50
2023-09-12T14:35:40.210Z,49.60
2023-09-12T14:40:07.159Z,49.10
2023-09-12T14:44:29.538Z,49.70
2023-09-12T14:49:00.706Z,50.90
2023-09-12T14:53:24.518Z,55.20
2023-09-12T14:57:46.778Z,56.40
2023-09-12T15:02:08.925Z,56.20
2023-09-12T15:06:34.506Z,56.00
2023-09-12T15:10:56.757Z,56.40
2023-09-12T15:15:22.972Z,57.70
2023-09-12T15:19:45.458Z,57.80
2023-09-12T15:24:07.859Z,57.90
2023-09-12T15:28:29.901Z,58.40
2023-09-12T15:32:51.764Z,59.30
2023-09-12T15:41:40.211Z,60.90
2023-09-12T15:46:02.291Z,61.70
2023-09-12T15:50:24.239Z,61.90
2023-09-12T15:54:46.567Z,62.90
2023-09-12T15:59:08.707Z,63.30
2023-09-12T16:03:31.948Z,63.80
2023-09-12T16:07:53.979Z,65.10
2023-09-12T16:12:16.063Z,65.50
2023-09-12T16:16:38.224Z,66.60
2023-09-12T16:21:00.544Z,67.40
2023-09-12T16:25:22.526Z,67.80
2023-09-12T16:29:44.603Z,68.70
2023-09-12T16:34:06.829Z,69.70
2023-09-12T16:38:30.094Z,70.70
2023-09-12T16:42:53.372Z,73.20
2023-09-12T16:47:15.567Z,73.80
2023-09-12T16:51:37.602Z,75.30
2023-09-12T16:56:00.653Z,76.70
2023-09-12T17:00:23.631Z,77.70
2023-09-12T17:04:46.005Z,78.60
2023-09-12T17:09:08.047Z,80.10
2023-09-12T17:13:30.370Z,82.00
2023-09-12T17:17:52.895Z,83.50
2023-09-12T17:22:15.159Z,85.20
2023-09-12T17:26:37.530Z,87.00
2023-09-12T17:30:59.721Z,89.50
2023-09-12T17:35:22.316Z,91.00
2023-09-12T17:39:44.534Z,92.20
2023-09-12T17:44:06.788Z,93.50
2023-09-12T17:48:29.084Z,94.70
2023-09-12T17:52:51.278Z,96.20
2023-09-12T17:57:13.536Z,97.40
2023-09-12T18:01:35.407Z,98.90
2023-09-12T18:05:57.397Z,99.90
2023-09-12T18:10:20.416Z,99.90
2023-09-12T18:14:42.317Z,99.90
2023-09-12T18:19:04.415Z,99.90
2023-09-12T18:23:26.398Z,99.90
2023-09-12T18:27:48.729Z,99.90
2023-09-12T18:32:10.777Z,99.90
2023-09-12T18:36:32.758Z,99.90
2023-09-12T18:40:54.759Z,99.90
2023-09-12T18:45:17.066Z,99.90
2023-09-12T18:49:39.404Z,99.90
2023-09-12T18:54:01.383Z,99.90
2023-09-12T18:58:23.601Z,99.90
2023-09-12T19:02:47.052Z,99.90
2023-09-12T19:07:09.304Z,99.90
2023-09-12T19:11:31.610Z,99.90
2023-09-12T19:15:53.653Z,99.90
2023-09-12T19:20:15.972Z,99.90
2023-09-12T19:24:38.132Z,99.90
2023-09-12T19:29:00.514Z,99.90
2023-09-12T19:33:23.097Z,99.90
2023-09-12T19:37:46.958Z,99.90
2023-09-12T19:42:09.381Z,99.90
2023-09-12T19:46:32.096Z,99.90
2023-09-12T19:50:54.396Z,99.90
2023-09-12T19:55:16.537Z,99.90
2023-09-12T19:59:38.557Z,99.90
2023-09-12T20:04:01.453Z,99.90
2023-09-12T20:08:24.116Z,99.90
2023-09-12T20:12:46.556Z,99.90
2023-09-12T20:17:08.609Z,99.90
2023-09-12T20:21:30.458Z,99.90
2023-09-12T20:25:54.926Z,99.90
2023-09-12T20:30:17.466Z,99.90
2023-09-12T20:34:39.472Z,99.90
2023-09-12T20:39:26.549Z,99.90
2023-09-12T20:43:48.760Z,99.90
2023-09-12T20:48:10.833Z,99.90
2023-09-12T20:52:33.040Z,99.90
2023-09-12T20:56:54.838Z,99.90
2023-09-12T21:01:17.001Z,99.90
2023-09-12T21:05:39.131Z,99.90
2023-09-12T21:10:01.005Z,99.90
2023-09-12T21:14:23.218Z,99.90
2023-09-12T21:18:45.916Z,99.90
2023-09-12T21:23:08.246Z,99.90
2023-09-12T21:27:30.322Z,99.90
2023-09-12T21:31:52.394Z,99.90
2023-09-12T21:36:14.819Z,99.90
2023-09-12T21:40:36.930Z,99.90
2023-09-12T21:44:59.358Z,99.90
2023-09-12T21:49:21.599Z,99.90
2023-09-12T21:53:45.731Z,99.90
2023-09-12T21:58:08.302Z,99.90
2023-09-12T22:02:30.278Z,99.90
2023-09-12T22:06:52.429Z,99.90
2023-09-12T22:11:15.829Z,99.90
2023-09-12T22:15:42.453Z,99.90
2023-09-12T22:20:07.178Z,99.90
2023-09-12T22:24:29.177Z,99.90
2023-09-12T22:28:51.099Z,99.90
2023-09-12T22:33:12.952Z,99.90
2023-09-12T22:37:35.148Z,99.90
2023-09-12T22:41:57.404Z,99.90
2023-09-12T22:46:19.618Z,99.90
2023-09-12T22:50:43.839Z,99.90
2023-09-12T22:55:07.439Z,99.90
2023-09-12T22:59:30.482Z,99.90
2023-09-12T23:03:52.909Z,99.90
2023-09-12T23:08:14.859Z,99.90
2023-09-12T23:12:37.085Z,99.90
2023-09-12T23:16:58.949Z,99.90
2023-09-12T23:21:21.480Z,99.90
2023-09-12T23:25:44.499Z,99.90
2023-09-12T23:30:07.758Z,99.90
2023-09-12T23:34:29.965Z,99.90
2023-09-12T23:38:52.237Z,99.90
2023-09-12T23:43:14.562Z,99.90
2023-09-12T23:47:37.148Z,99.90
2023-09-12T23:51:59.375Z,99.90
2023-09-12T23:56:21.303Z,99.90
